sensor_id;sensor_type;location;lat;lon;timestamp;P1;durP1;ratioP1;P2;durP2;ratioP2
9256;SDS011;4665;51.368;6.782;2023-05-10T00:00:36;19.50;;;12.93;;
9256;SDS011;4665;51.368;6.782;2023-05-10T00:03:01;18.93;;;12.73;;
9256;SDS011;4665;51.368;6.782;2023-05-10T00:05:29;17.57;;;11.80;;
9256;SDS011;4665;51.368;6.782;2023-05-10T00:07:54;16.33;;;11.77;;
9256;SDS011;4665;51.368;6.782;2023-05-10T00:10:20;16.17;;;12.07;;
9256;SDS011;4665;51.368;6.782;2023-05-10T00:12:45;15.80;;;11.53;;
9256;SDS011;4665;51.368;6.782;2023-05-10T00:15:11;18.53;;;12.40;;
9256;SDS011;4665;51.368;6.782;2023-05-10T00:17:36;16.90;;;12.83;;
9256;SDS011;4665;51.368;6.782;2023-05-10T00:20:02;18.70;;;12.80;;
9256;SDS011;4665;51.368;6.782;2023-05-10T00:22:29;14.60;;;11.63;;
9256;SDS011;4665;51.368;6.782;2023-05-10T00:24:55;13.60;;;11.63;;
9256;SDS011;4665;51.368;6.782;2023-05-10T00:27:21;16.37;;;12.07;;
9256;SDS011;4665;51.368;6.782;2023-05-10T00:29:46;14.57;;;11.30;;
9256;SDS011;4665;51.368;6.782;2023-05-10T00:32:12;16.07;;;13.03;;
9256;SDS011;4665;51.368;6.782;2023-05-10T00:34:38;18.00;;;13.20;;
9256;SDS011;4665;51.368;6.782;2023-05-10T00:37:04;16.60;;;13.20;;
9256;SDS011;4665;51.368;6.782;2023-05-10T00:39:30;19.47;;;14.13;;
9256;SDS011;4665;51.368;6.782;2023-05-10T00:41:56;17.03;;;13.50;;
9256;SDS011;4665;51.368;6.782;2023-05-10T00:44:21;17.77;;;14.17;;
9256;SDS011;4665;51.368;6.782;2023-05-10T00:46:47;16.37;;;13.73;;
9256;SDS011;4665;51.368;6.782;2023-05-10T00:49:13;16.67;;;13.57;;
9256;SDS011;4665;51.368;6.782;2023-05-10T00:51:39;16.67;;;13.97;;
9256;SDS011;4665;51.368;6.782;2023-05-10T00:54:04;16.00;;;13.50;;
9256;SDS011;4665;51.368;6.782;2023-05-10T00:56:30;16.20;;;13.23;;
9256;SDS011;4665;51.368;6.782;2023-05-10T00:58:56;16.67;;;13.23;;
9256;SDS011;4665;51.368;6.782;2023-05-10T01:01:22;16.57;;;13.57;;
9256;SDS011;4665;51.368;6.782;2023-05-10T01:03:54;18.07;;;13.67;;
9256;SDS011;4665;51.368;6.782;2023-05-10T01:06:20;16.53;;;12.43;;
9256;SDS011;4665;51.368;6.782;2023-05-10T01:08:46;15.67;;;13.17;;
9256;SDS011;4665;51.368;6.782;2023-05-10T01:11:12;15.57;;;13.13;;
9256;SDS011;4665;51.368;6.782;2023-05-10T01:13:38;14.43;;;12.93;;
9256;SDS011;4665;51.368;6.782;2023-05-10T01:16:06;14.50;;;12.40;;
9256;SDS011;4665;51.368;6.782;2023-05-10T01:18:33;16.20;;;13.10;;
9256;SDS011;4665;51.368;6.782;2023-05-10T01:40:38;12.03;;;10.67;;
9256;SDS011;4665;51.368;6.782;2023-05-10T01:43:08;13.40;;;10.70;;
9256;SDS011;4665;51.368;6.782;2023-05-10T01:45:58;13.93;;;11.57;;
9256;SDS011;4665;51.368;6.782;2023-05-10T01:48:30;15.63;;;12.13;;
9256;SDS011;4665;51.368;6.782;2023-05-10T01:50:57;13.10;;;11.37;;
9256;SDS011;4665;51.368;6.782;2023-05-10T01:53:23;14.47;;;12.77;;
9256;SDS011;4665;51.368;6.782;2023-05-10T01:55:50;14.07;;;12.37;;
9256;SDS011;4665;51.368;6.782;2023-05-10T01:58:25;14.50;;;12.63;;
9256;SDS011;4665;51.368;6.782;2023-05-10T02:00:55;17.03;;;13.37;;
9256;SDS011;4665;51.368;6.782;2023-05-10T02:03:23;15.57;;;13.50;;
9256;SDS011;4665;51.368;6.782;2023-05-10T02:05:51;14.40;;;12.33;;
9256;SDS011;4665;51.368;6.782;2023-05-10T02:08:18;15.33;;;12.33;;
9256;SDS011;4665;51.368;6.782;2023-05-10T02:10:47;13.27;;;11.47;;
9256;SDS011;4665;51.368;6.782;2023-05-10T02:13:16;13.80;;;11.33;;
9256;SDS011;4665;51.368;6.782;2023-05-10T02:15:43;10.33;;;9.13;;
9256;SDS011;4665;51.368;6.782;2023-05-10T02:18:12;10.30;;;9.20;;
9256;SDS011;4665;51.368;6.782;2023-05-10T02:20:39;10.83;;;9.70;;
9256;SDS011;4665;51.368;6.782;2023-05-10T02:23:04;8.70;;;7.80;;
9256;SDS011;4665;51.368;6.782;2023-05-10T02:25:31;9.33;;;8.27;;
9256;SDS011;4665;51.368;6.782;2023-05-10T02:27:58;10.07;;;8.93;;
9256;SDS011;4665;51.368;6.782;2023-05-10T02:30:26;9.37;;;8.27;;
9256;SDS011;4665;51.368;6.782;2023-05-10T02:32:53;8.87;;;8.07;;
9256;SDS011;4665;51.368;6.782;2023-05-10T02:35:20;10.30;;;7.97;;
9256;SDS011;4665;51.368;6.782;2023-05-10T02:37:48;9.50;;;8.60;;
9256;SDS011;4665;51.368;6.782;2023-05-10T02:40:14;14.33;;;10.67;;
9256;SDS011;4665;51.368;6.782;2023-05-10T02:42:41;15.00;;;11.73;;
9256;SDS011;4665;51.368;6.782;2023-05-10T02:45:11;15.20;;;12.17;;
9256;SDS011;4665;51.368;6.782;2023-05-10T02:47:38;15.70;;;11.93;;
9256;SDS011;4665;51.368;6.782;2023-05-10T02:50:04;13.03;;;10.33;;
9256;SDS011;4665;51.368;6.782;2023-05-10T02:52:36;19.67;;;13.50;;
9256;SDS011;4665;51.368;6.782;2023-05-10T02:55:08;16.43;;;12.07;;
9256;SDS011;4665;51.368;6.782;2023-05-10T02:57:38;21.60;;;13.37;;
9256;SDS011;4665;51.368;6.782;2023-05-10T03:00:11;14.77;;;11.37;;
9256;SDS011;4665;51.368;6.782;2023-05-10T03:02:37;16.77;;;13.27;;
9256;SDS011;4665;51.368;6.782;2023-05-10T03:05:02;18.10;;;12.80;;
9256;SDS011;4665;51.368;6.782;2023-05-10T03:07:28;13.17;;;11.10;;
9256;SDS011;4665;51.368;6.782;2023-05-10T03:09:54;12.33;;;10.90;;
9256;SDS011;4665;51.368;6.782;2023-05-10T03:12:27;15.47;;;11.37;;
9256;SDS011;4665;51.368;6.782;2023-05-10T03:17:47;16.53;;;11.53;;
9256;SDS011;4665;51.368;6.782;2023-05-10T03:23:07;13.30;;;11.07;;
9256;SDS011;4665;51.368;6.782;2023-05-10T03:25:39;14.13;;;11.37;;
9256;SDS011;4665;51.368;6.782;2023-05-10T03:28:06;13.20;;;10.90;;
9256;SDS011;4665;51.368;6.782;2023-05-10T03:30:32;13.10;;;10.50;;
9256;SDS011;4665;51.368;6.782;2023-05-10T03:33:04;14.80;;;12.13;;
9256;SDS011;4665;51.368;6.782;2023-05-10T03:35:32;14.30;;;10.93;;
9256;SDS011;4665;51.368;6.782;2023-05-10T03:37:58;12.17;;;10.53;;
9256;SDS011;4665;51.368;6.782;2023-05-10T03:40:24;11.13;;;9.87;;
9256;SDS011;4665;51.368;6.782;2023-05-10T03:42:50;14.17;;;11.27;;
9256;SDS011;4665;51.368;6.782;2023-05-10T03:45:16;15.27;;;11.20;;
9256;SDS011;4665;51.368;6.782;2023-05-10T03:47:41;13.87;;;10.97;;
9256;SDS011;4665;51.368;6.782;2023-05-10T03:50:07;16.23;;;13.13;;
9256;SDS011;4665;51.368;6.782;2023-05-10T03:52:32;15.53;;;12.47;;
9256;SDS011;4665;51.368;6.782;2023-05-10T03:54:58;17.00;;;12.27;;
9256;SDS011;4665;51.368;6.782;2023-05-10T03:57:23;16.93;;;12.77;;
9256;SDS011;4665;51.368;6.782;2023-05-10T03:59:49;17.23;;;12.90;;
9256;SDS011;4665;51.368;6.782;2023-05-10T04:02:15;17.83;;;12.67;;
9256;SDS011;4665;51.368;6.782;2023-05-10T04:04:40;18.33;;;11.90;;
9256;SDS011;4665;51.368;6.782;2023-05-10T04:07:06;17.27;;;12.80;;
9256;SDS011;4665;51.368;6.782;2023-05-10T04:09:31;16.37;;;12.57;;
9256;SDS011;4665;51.368;6.782;2023-05-10T04:11:58;21.10;;;14.37;;
9256;SDS011;4665;51.368;6.782;2023-05-10T04:14:25;19.77;;;13.60;;
9256;SDS011;4665;51.368;6.782;2023-05-10T04:16:50;21.47;;;13.37;;
9256;SDS011;4665;51.368;6.782;2023-05-10T04:19:16;21.53;;;14.73;;
9256;SDS011;4665;51.368;6.782;2023-05-10T04:21:41;22.37;;;13.93;;
9256;SDS011;4665;51.368;6.782;2023-05-10T04:24:07;21.43;;;15.23;;
9256;SDS011;4665;51.368;6.782;2023-05-10T04:26:32;23.47;;;15.57;;
9256;SDS011;4665;51.368;6.782;2023-05-10T04:28:58;23.77;;;15.60;;
9256;SDS011;4665;51.368;6.782;2023-05-10T04:31:23;27.37;;;16.20;;
9256;SDS011;4665;51.368;6.782;2023-05-10T04:33:49;24.73;;;16.27;;
9256;SDS011;4665;51.368;6.782;2023-05-10T04:36:15;28.13;;;17.90;;
9256;SDS011;4665;51.368;6.782;2023-05-10T04:38:40;27.40;;;17.17;;
9256;SDS011;4665;51.368;6.782;2023-05-10T04:41:07;32.87;;;19.17;;
9256;SDS011;4665;51.368;6.782;2023-05-10T04:43:33;33.37;;;19.73;;
9256;SDS011;4665;51.368;6.782;2023-05-10T04:45:59;34.63;;;20.90;;
9256;SDS011;4665;51.368;6.782;2023-05-10T04:48:24;35.83;;;20.03;;
9256;SDS011;4665;51.368;6.782;2023-05-10T04:50:50;37.60;;;20.33;;
9256;SDS011;4665;51.368;6.782;2023-05-10T04:53:15;37.00;;;21.40;;
9256;SDS011;4665;51.368;6.782;2023-05-10T04:55:41;38.40;;;22.13;;
9256;SDS011;4665;51.368;6.782;2023-05-10T04:58:07;40.90;;;22.80;;
9256;SDS011;4665;51.368;6.782;2023-05-10T05:00:33;37.17;;;21.63;;
9256;SDS011;4665;51.368;6.782;2023-05-10T05:02:58;39.40;;;22.20;;
9256;SDS011;4665;51.368;6.782;2023-05-10T05:05:26;46.93;;;23.17;;
9256;SDS011;4665;51.368;6.782;2023-05-10T05:07:52;41.67;;;23.13;;
9256;SDS011;4665;51.368;6.782;2023-05-10T05:10:17;41.43;;;22.77;;
9256;SDS011;4665;51.368;6.782;2023-05-10T05:12:43;42.93;;;23.47;;
9256;SDS011;4665;51.368;6.782;2023-05-10T05:15:08;41.27;;;23.90;;
9256;SDS011;4665;51.368;6.782;2023-05-10T05:17:34;41.10;;;23.40;;
9256;SDS011;4665;51.368;6.782;2023-05-10T05:20:01;45.67;;;25.93;;
9256;SDS011;4665;51.368;6.782;2023-05-10T05:22:26;43.83;;;23.87;;
9256;SDS011;4665;51.368;6.782;2023-05-10T05:24:56;43.57;;;23.57;;
9256;SDS011;4665;51.368;6.782;2023-05-10T05:27:23;41.40;;;23.73;;
9256;SDS011;4665;51.368;6.782;2023-05-10T05:29:54;43.07;;;24.13;;
9256;SDS011;4665;51.368;6.782;2023-05-10T05:32:19;47.77;;;25.30;;
9256;SDS011;4665;51.368;6.782;2023-05-10T05:34:45;41.70;;;24.83;;
9256;SDS011;4665;51.368;6.782;2023-05-10T05:37:14;47.07;;;25.97;;
9256;SDS011;4665;51.368;6.782;2023-05-10T05:39:41;44.37;;;25.80;;
9256;SDS011;4665;51.368;6.782;2023-05-10T05:42:07;46.97;;;25.17;;
9256;SDS011;4665;51.368;6.782;2023-05-10T05:44:34;45.07;;;25.73;;
9256;SDS011;4665;51.368;6.782;2023-05-10T05:46:59;47.47;;;26.13;;
9256;SDS011;4665;51.368;6.782;2023-05-10T05:49:25;44.53;;;25.17;;
9256;SDS011;4665;51.368;6.782;2023-05-10T05:51:50;43.93;;;25.80;;
9256;SDS011;4665;51.368;6.782;2023-05-10T05:54:16;45.27;;;26.43;;
9256;SDS011;4665;51.368;6.782;2023-05-10T05:56:41;45.13;;;26.60;;
9256;SDS011;4665;51.368;6.782;2023-05-10T05:59:07;48.00;;;27.03;;
9256;SDS011;4665;51.368;6.782;2023-05-10T06:01:33;45.80;;;25.67;;
9256;SDS011;4665;51.368;6.782;2023-05-10T06:03:58;54.03;;;27.87;;
9256;SDS011;4665;51.368;6.782;2023-05-10T06:06:24;49.10;;;28.13;;
9256;SDS011;4665;51.368;6.782;2023-05-10T06:08:49;52.80;;;27.33;;
9256;SDS011;4665;51.368;6.782;2023-05-10T06:11:14;48.97;;;27.93;;
9256;SDS011;4665;51.368;6.782;2023-05-10T06:13:40;51.40;;;28.40;;
9256;SDS011;4665;51.368;6.782;2023-05-10T06:16:07;56.67;;;29.43;;
9256;SDS011;4665;51.368;6.782;2023-05-10T06:18:32;59.50;;;30.23;;
9256;SDS011;4665;51.368;6.782;2023-05-10T06:20:58;62.37;;;31.13;;
9256;SDS011;4665;51.368;6.782;2023-05-10T06:23:23;54.77;;;28.93;;
9256;SDS011;4665;51.368;6.782;2023-05-10T06:25:50;56.27;;;29.73;;
9256;SDS011;4665;51.368;6.782;2023-05-10T06:28:16;62.20;;;29.23;;
9256;SDS011;4665;51.368;6.782;2023-05-10T06:30:41;61.53;;;30.30;;
9256;SDS011;4665;51.368;6.782;2023-05-10T06:33:07;55.10;;;29.03;;
9256;SDS011;4665;51.368;6.782;2023-05-10T06:35:33;60.23;;;29.70;;
9256;SDS011;4665;51.368;6.782;2023-05-10T06:37:58;60.57;;;29.30;;
9256;SDS011;4665;51.368;6.782;2023-05-10T06:40:24;54.63;;;28.17;;
9256;SDS011;4665;51.368;6.782;2023-05-10T06:42:49;59.13;;;28.30;;
9256;SDS011;4665;51.368;6.782;2023-05-10T06:45:15;51.03;;;28.37;;
9256;SDS011;4665;51.368;6.782;2023-05-10T06:47:41;53.63;;;27.70;;
9256;SDS011;4665;51.368;6.782;2023-05-10T06:50:09;50.63;;;27.43;;
9256;SDS011;4665;51.368;6.782;2023-05-10T06:52:38;55.53;;;27.87;;
9256;SDS011;4665;51.368;6.782;2023-05-10T06:55:04;53.97;;;28.43;;
9256;SDS011;4665;51.368;6.782;2023-05-10T06:57:30;51.57;;;27.33;;
9256;SDS011;4665;51.368;6.782;2023-05-10T06:59:56;43.80;;;25.10;;
9256;SDS011;4665;51.368;6.782;2023-05-10T07:02:21;54.13;;;28.60;;
9256;SDS011;4665;51.368;6.782;2023-05-10T07:04:47;59.10;;;28.37;;
9256;SDS011;4665;51.368;6.782;2023-05-10T07:07:13;58.00;;;27.90;;
9256;SDS011;4665;51.368;6.782;2023-05-10T07:09:39;55.90;;;27.67;;
9256;SDS011;4665;51.368;6.782;2023-05-10T07:12:05;60.13;;;27.97;;
9256;SDS011;4665;51.368;6.782;2023-05-10T07:14:30;61.27;;;29.00;;
9256;SDS011;4665;51.368;6.782;2023-05-10T07:16:55;56.40;;;27.37;;
9256;SDS011;4665;51.368;6.782;2023-05-10T07:19:21;60.33;;;29.53;;
9256;SDS011;4665;51.368;6.782;2023-05-10T07:21:46;57.77;;;27.10;;
9256;SDS011;4665;51.368;6.782;2023-05-10T07:24:12;53.43;;;26.53;;
9256;SDS011;4665;51.368;6.782;2023-05-10T07:26:39;55.50;;;26.53;;
9256;SDS011;4665;51.368;6.782;2023-05-10T07:29:04;59.13;;;27.27;;
9256;SDS011;4665;51.368;6.782;2023-05-10T07:31:30;49.93;;;24.47;;
9256;SDS011;4665;51.368;6.782;2023-05-10T07:33:55;47.37;;;24.67;;
9256;SDS011;4665;51.368;6.782;2023-05-10T07:36:21;45.80;;;24.77;;
9256;SDS011;4665;51.368;6.782;2023-05-10T07:38:46;50.73;;;26.03;;
9256;SDS011;4665;51.368;6.782;2023-05-10T07:41:12;50.17;;;25.77;;
9256;SDS011;4665;51.368;6.782;2023-05-10T07:43:37;50.43;;;26.50;;
9256;SDS011;4665;51.368;6.782;2023-05-10T07:46:03;47.17;;;24.60;;
9256;SDS011;4665;51.368;6.782;2023-05-10T07:48:29;52.30;;;25.67;;
9256;SDS011;4665;51.368;6.782;2023-05-10T07:50:54;49.97;;;25.23;;
9256;SDS011;4665;51.368;6.782;2023-05-10T07:53:19;54.40;;;26.33;;
9256;SDS011;4665;51.368;6.782;2023-05-10T07:55:57;45.37;;;24.83;;
9256;SDS011;4665;51.368;6.782;2023-05-10T07:58:24;42.80;;;22.80;;
9256;SDS011;4665;51.368;6.782;2023-05-10T08:00:50;43.70;;;23.67;;
9256;SDS011;4665;51.368;6.782;2023-05-10T08:03:15;45.53;;;23.80;;
9256;SDS011;4665;51.368;6.782;2023-05-10T08:05:41;45.07;;;23.27;;
9256;SDS011;4665;51.368;6.782;2023-05-10T08:08:07;42.13;;;22.33;;
9256;SDS011;4665;51.368;6.782;2023-05-10T08:10:32;49.17;;;24.97;;
9256;SDS011;4665;51.368;6.782;2023-05-10T08:12:57;55.23;;;27.43;;
9256;SDS011;4665;51.368;6.782;2023-05-10T08:15:23;54.63;;;27.37;;
9256;SDS011;4665;51.368;6.782;2023-05-10T08:17:51;60.70;;;27.27;;
9256;SDS011;4665;51.368;6.782;2023-05-10T08:20:17;64.33;;;29.00;;
9256;SDS011;4665;51.368;6.782;2023-05-10T08:22:44;62.77;;;28.57;;
9256;SDS011;4665;51.368;6.782;2023-05-10T08:25:10;57.03;;;28.63;;
9256;SDS011;4665;51.368;6.782;2023-05-10T08:27:36;56.00;;;28.37;;
9256;SDS011;4665;51.368;6.782;2023-05-10T08:30:01;61.67;;;27.30;;
9256;SDS011;4665;51.368;6.782;2023-05-10T08:32:27;64.67;;;28.93;;
9256;SDS011;4665;51.368;6.782;2023-05-10T08:34:52;62.83;;;27.90;;
9256;SDS011;4665;51.368;6.782;2023-05-10T08:37:18;62.13;;;27.67;;
9256;SDS011;4665;51.368;6.782;2023-05-10T08:39:43;56.20;;;27.77;;
9256;SDS011;4665;51.368;6.782;2023-05-10T08:42:10;53.80;;;26.83;;
9256;SDS011;4665;51.368;6.782;2023-05-10T08:44:37;59.83;;;28.77;;
9256;SDS011;4665;51.368;6.782;2023-05-10T08:47:04;50.57;;;27.30;;
9256;SDS011;4665;51.368;6.782;2023-05-10T08:49:32;50.80;;;26.87;;
9256;SDS011;4665;51.368;6.782;2023-05-10T08:52:01;51.10;;;25.73;;
9256;SDS011;4665;51.368;6.782;2023-05-10T08:54:29;43.43;;;25.40;;
9256;SDS011;4665;51.368;6.782;2023-05-10T08:56:56;43.10;;;25.03;;
9256;SDS011;4665;51.368;6.782;2023-05-10T08:59:22;41.67;;;24.67;;
9256;SDS011;4665;51.368;6.782;2023-05-10T09:01:47;40.60;;;23.40;;
9256;SDS011;4665;51.368;6.782;2023-05-10T09:04:15;42.70;;;24.40;;
9256;SDS011;4665;51.368;6.782;2023-05-10T09:06:40;43.40;;;25.70;;
9256;SDS011;4665;51.368;6.782;2023-05-10T09:09:06;41.70;;;23.63;;
9256;SDS011;4665;51.368;6.782;2023-05-10T09:11:32;39.57;;;24.07;;
9256;SDS011;4665;51.368;6.782;2023-05-10T09:13:57;36.77;;;22.27;;
9256;SDS011;4665;51.368;6.782;2023-05-10T09:16:23;40.07;;;23.30;;
9256;SDS011;4665;51.368;6.782;2023-05-10T09:18:49;36.27;;;23.13;;
9256;SDS011;4665;51.368;6.782;2023-05-10T09:21:14;39.57;;;23.13;;
9256;SDS011;4665;51.368;6.782;2023-05-10T09:23:44;29.97;;;20.73;;
9256;SDS011;4665;51.368;6.782;2023-05-10T09:26:10;32.27;;;19.80;;
9256;SDS011;4665;51.368;6.782;2023-05-10T09:28:52;29.20;;;18.57;;
9256;SDS011;4665;51.368;6.782;2023-05-10T09:31:18;25.73;;;18.23;;
9256;SDS011;4665;51.368;6.782;2023-05-10T09:33:45;23.67;;;17.67;;
9256;SDS011;4665;51.368;6.782;2023-05-10T09:36:12;27.07;;;18.13;;
9256;SDS011;4665;51.368;6.782;2023-05-10T09:38:47;22.53;;;17.00;;
9256;SDS011;4665;51.368;6.782;2023-05-10T09:41:23;21.20;;;16.33;;
9256;SDS011;4665;51.368;6.782;2023-05-10T09:43:49;19.30;;;14.60;;
9256;SDS011;4665;51.368;6.782;2023-05-10T09:46:15;15.67;;;13.53;;
9256;SDS011;4665;51.368;6.782;2023-05-10T09:48:45;21.20;;;15.00;;
9256;SDS011;4665;51.368;6.782;2023-05-10T09:51:24;20.83;;;14.53;;
9256;SDS011;4665;51.368;6.782;2023-05-10T09:54:12;17.37;;;13.87;;
9256;SDS011;4665;51.368;6.782;2023-05-10T09:56:39;20.80;;;15.00;;
9256;SDS011;4665;51.368;6.782;2023-05-10T09:59:06;17.77;;;13.73;;
9256;SDS011;4665;51.368;6.782;2023-05-10T10:01:35;19.83;;;15.40;;
9256;SDS011;4665;51.368;6.782;2023-05-10T10:04:05;20.47;;;15.27;;
9256;SDS011;4665;51.368;6.782;2023-05-10T10:06:38;21.40;;;15.53;;
9256;SDS011;4665;51.368;6.782;2023-05-10T10:09:08;19.87;;;15.07;;
9256;SDS011;4665;51.368;6.782;2023-05-10T10:11:35;19.17;;;14.70;;
9256;SDS011;4665;51.368;6.782;2023-05-10T10:14:00;24.37;;;15.90;;
9256;SDS011;4665;51.368;6.782;2023-05-10T10:16:27;24.83;;;15.77;;
9256;SDS011;4665;51.368;6.782;2023-05-10T10:18:54;22.47;;;16.13;;
9256;SDS011;4665;51.368;6.782;2023-05-10T10:21:21;22.33;;;17.07;;
9256;SDS011;4665;51.368;6.782;2023-05-10T10:23:47;23.43;;;17.20;;
9256;SDS011;4665;51.368;6.782;2023-05-10T10:26:13;21.13;;;16.47;;
9256;SDS011;4665;51.368;6.782;2023-05-10T10:31:32;21.33;;;15.53;;
9256;SDS011;4665;51.368;6.782;2023-05-10T10:34:06;21.60;;;14.97;;
9256;SDS011;4665;51.368;6.782;2023-05-10T10:36:42;20.57;;;15.40;;
9256;SDS011;4665;51.368;6.782;2023-05-10T10:39:10;19.70;;;14.80;;
9256;SDS011;4665;51.368;6.782;2023-05-10T10:41:38;24.47;;;16.77;;
9256;SDS011;4665;51.368;6.782;2023-05-10T10:52:53;21.90;;;14.10;;
9256;SDS011;4665;51.368;6.782;2023-05-10T10:55:10;19.47;;;14.63;;
9256;SDS011;4665;51.368;6.782;2023-05-10T10:58:09;16.50;;;12.93;;
9256;SDS011;4665;51.368;6.782;2023-05-10T11:00:30;17.13;;;12.50;;
9256;SDS011;4665;51.368;6.782;2023-05-10T11:02:58;16.07;;;12.00;;
9256;SDS011;4665;51.368;6.782;2023-05-10T11:08:18;13.37;;;11.20;;
9256;SDS011;4665;51.368;6.782;2023-05-10T11:18:58;14.10;;;10.93;;
9256;SDS011;4665;51.368;6.782;2023-05-10T11:21:27;13.83;;;10.93;;
9256;SDS011;4665;51.368;6.782;2023-05-10T11:23:54;13.77;;;12.00;;
9256;SDS011;4665;51.368;6.782;2023-05-10T11:26:30;14.73;;;12.03;;
9256;SDS011;4665;51.368;6.782;2023-05-10T11:28:57;13.83;;;12.40;;
9256;SDS011;4665;51.368;6.782;2023-05-10T11:31:27;13.77;;;12.30;;
9256;SDS011;4665;51.368;6.782;2023-05-10T11:33:54;17.03;;;11.90;;
9256;SDS011;4665;51.368;6.782;2023-05-10T11:36:23;15.27;;;13.27;;
9256;SDS011;4665;51.368;6.782;2023-05-10T11:38:51;18.43;;;13.37;;
9256;SDS011;4665;51.368;6.782;2023-05-10T11:41:17;15.87;;;12.23;;
9256;SDS011;4665;51.368;6.782;2023-05-10T11:43:45;17.87;;;13.53;;
9256;SDS011;4665;51.368;6.782;2023-05-10T11:46:14;19.07;;;12.70;;
9256;SDS011;4665;51.368;6.782;2023-05-10T11:48:40;15.30;;;12.53;;
9256;SDS011;4665;51.368;6.782;2023-05-10T11:51:06;13.23;;;10.70;;
9256;SDS011;4665;51.368;6.782;2023-05-10T11:53:32;12.07;;;10.77;;
9256;SDS011;4665;51.368;6.782;2023-05-10T11:56:05;12.73;;;11.30;;
9256;SDS011;4665;51.368;6.782;2023-05-10T11:58:31;13.47;;;11.13;;
9256;SDS011;4665;51.368;6.782;2023-05-10T12:00:57;13.90;;;11.10;;
9256;SDS011;4665;51.368;6.782;2023-05-10T12:03:23;12.00;;;10.80;;
9256;SDS011;4665;51.368;6.782;2023-05-10T12:05:49;10.93;;;9.83;;
9256;SDS011;4665;51.368;6.782;2023-05-10T12:08:15;11.53;;;10.30;;
9256;SDS011;4665;51.368;6.782;2023-05-10T12:10:41;9.77;;;8.77;;
9256;SDS011;4665;51.368;6.782;2023-05-10T12:13:13;10.33;;;9.03;;
9256;SDS011;4665;51.368;6.782;2023-05-10T12:15:40;11.47;;;9.30;;
9256;SDS011;4665;51.368;6.782;2023-05-10T12:18:10;13.10;;;11.60;;
9256;SDS011;4665;51.368;6.782;2023-05-10T12:20:37;15.87;;;11.37;;
9256;SDS011;4665;51.368;6.782;2023-05-10T12:23:04;12.57;;;10.77;;
9256;SDS011;4665;51.368;6.782;2023-05-10T12:25:33;11.80;;;10.60;;
9256;SDS011;4665;51.368;6.782;2023-05-10T12:28:02;12.50;;;10.30;;
9256;SDS011;4665;51.368;6.782;2023-05-10T12:30:29;11.13;;;9.97;;
9256;SDS011;4665;51.368;6.782;2023-05-10T12:33:03;11.13;;;9.97;;
9256;SDS011;4665;51.368;6.782;2023-05-10T12:35:32;11.07;;;9.97;;
9256;SDS011;4665;51.368;6.782;2023-05-10T12:41:04;12.23;;;10.93;;
9256;SDS011;4665;51.368;6.782;2023-05-10T12:43:32;13.43;;;10.50;;
9256;SDS011;4665;51.368;6.782;2023-05-10T12:45:58;13.43;;;10.80;;
9256;SDS011;4665;51.368;6.782;2023-05-10T12:48:23;11.23;;;10.13;;
9256;SDS011;4665;51.368;6.782;2023-05-10T12:50:50;11.37;;;10.17;;
9256;SDS011;4665;51.368;6.782;2023-05-10T12:53:15;13.23;;;9.47;;
9256;SDS011;4665;51.368;6.782;2023-05-10T12:55:44;9.87;;;8.60;;
9256;SDS011;4665;51.368;6.782;2023-05-10T12:58:10;8.83;;;7.97;;
9256;SDS011;4665;51.368;6.782;2023-05-10T13:00:36;8.63;;;7.77;;
9256;SDS011;4665;51.368;6.782;2023-05-10T13:03:03;10.17;;;9.17;;
9256;SDS011;4665;51.368;6.782;2023-05-10T13:05:31;9.77;;;8.77;;
9256;SDS011;4665;51.368;6.782;2023-05-10T13:07:57;10.53;;;9.50;;
9256;SDS011;4665;51.368;6.782;2023-05-10T13:10:22;9.97;;;8.90;;
9256;SDS011;4665;51.368;6.782;2023-05-10T13:12:48;9.63;;;8.63;;
9256;SDS011;4665;51.368;6.782;2023-05-10T13:15:14;11.23;;;10.07;;
9256;SDS011;4665;51.368;6.782;2023-05-10T13:17:39;11.03;;;10.03;;
9256;SDS011;4665;51.368;6.782;2023-05-10T13:20:06;10.60;;;9.60;;
9256;SDS011;4665;51.368;6.782;2023-05-10T13:22:31;9.80;;;8.93;;
9256;SDS011;4665;51.368;6.782;2023-05-10T13:24:57;11.97;;;10.87;;
9256;SDS011;4665;51.368;6.782;2023-05-10T13:27:22;13.00;;;11.57;;
9256;SDS011;4665;51.368;6.782;2023-05-10T13:29:48;12.40;;;11.20;;
9256;SDS011;4665;51.368;6.782;2023-05-10T13:32:13;14.70;;;12.57;;
9256;SDS011;4665;51.368;6.782;2023-05-10T13:34:38;13.50;;;12.10;;
9256;SDS011;4665;51.368;6.782;2023-05-10T13:37:04;13.60;;;11.93;;
9256;SDS011;4665;51.368;6.782;2023-05-10T13:39:29;14.43;;;11.97;;
9256;SDS011;4665;51.368;6.782;2023-05-10T13:41:58;13.17;;;11.77;;
9256;SDS011;4665;51.368;6.782;2023-05-10T13:44:23;13.47;;;12.07;;
9256;SDS011;4665;51.368;6.782;2023-05-10T13:46:49;14.17;;;12.67;;
9256;SDS011;4665;51.368;6.782;2023-05-10T13:49:14;14.20;;;12.43;;
9256;SDS011;4665;51.368;6.782;2023-05-10T13:51:40;13.43;;;12.13;;
9256;SDS011;4665;51.368;6.782;2023-05-10T13:54:05;14.63;;;13.13;;
9256;SDS011;4665;51.368;6.782;2023-05-10T13:56:31;12.23;;;11.03;;
9256;SDS011;4665;51.368;6.782;2023-05-10T13:58:56;12.37;;;11.17;;
9256;SDS011;4665;51.368;6.782;2023-05-10T14:01:23;11.77;;;10.20;;
9256;SDS011;4665;51.368;6.782;2023-05-10T14:03:49;13.33;;;11.97;;
9256;SDS011;4665;51.368;6.782;2023-05-10T14:06:14;13.23;;;11.80;;
9256;SDS011;4665;51.368;6.782;2023-05-10T14:08:40;13.00;;;11.80;;
9256;SDS011;4665;51.368;6.782;2023-05-10T14:11:05;12.80;;;11.60;;
9256;SDS011;4665;51.368;6.782;2023-05-10T14:13:31;12.57;;;10.40;;
9256;SDS011;4665;51.368;6.782;2023-05-10T14:15:56;12.77;;;11.43;;
9256;SDS011;4665;51.368;6.782;2023-05-10T14:18:22;13.70;;;12.27;;
9256;SDS011;4665;51.368;6.782;2023-05-10T14:20:47;15.20;;;13.63;;
9256;SDS011;4665;51.368;6.782;2023-05-10T14:23:13;13.50;;;12.20;;
9256;SDS011;4665;51.368;6.782;2023-05-10T14:25:41;14.40;;;12.90;;
9256;SDS011;4665;51.368;6.782;2023-05-10T14:28:07;16.53;;;13.53;;
9256;SDS011;4665;51.368;6.782;2023-05-10T14:30:32;17.13;;;15.37;;
9256;SDS011;4665;51.368;6.782;2023-05-10T14:32:59;17.47;;;14.80;;
9256;SDS011;4665;51.368;6.782;2023-05-10T14:35:26;15.17;;;13.60;;
9256;SDS011;4665;51.368;6.782;2023-05-10T14:37:52;16.33;;;14.60;;
9256;SDS011;4665;51.368;6.782;2023-05-10T14:40:19;15.20;;;13.23;;
9256;SDS011;4665;51.368;6.782;2023-05-10T14:42:45;17.70;;;14.73;;
9256;SDS011;4665;51.368;6.782;2023-05-10T14:45:11;17.30;;;14.13;;
9256;SDS011;4665;51.368;6.782;2023-05-10T14:47:37;16.33;;;13.10;;
9256;SDS011;4665;51.368;6.782;2023-05-10T14:50:03;12.33;;;11.13;;
9256;SDS011;4665;51.368;6.782;2023-05-10T14:52:28;13.50;;;12.10;;
9256;SDS011;4665;51.368;6.782;2023-05-10T14:54:54;15.63;;;13.67;;
9256;SDS011;4665;51.368;6.782;2023-05-10T14:57:20;15.17;;;13.57;;
9256;SDS011;4665;51.368;6.782;2023-05-10T14:59:45;14.53;;;13.03;;
9256;SDS011;4665;51.368;6.782;2023-05-10T15:02:10;15.37;;;12.80;;
9256;SDS011;4665;51.368;6.782;2023-05-10T15:04:36;13.30;;;11.97;;
9256;SDS011;4665;51.368;6.782;2023-05-10T15:07:02;12.43;;;11.20;;
9256;SDS011;4665;51.368;6.782;2023-05-10T15:09:28;13.23;;;11.93;;
9256;SDS011;4665;51.368;6.782;2023-05-10T15:11:53;14.47;;;11.87;;
9256;SDS011;4665;51.368;6.782;2023-05-10T15:14:19;12.33;;;11.10;;
9256;SDS011;4665;51.368;6.782;2023-05-10T15:16:45;11.80;;;10.10;;
9256;SDS011;4665;51.368;6.782;2023-05-10T15:19:10;10.97;;;9.93;;
9256;SDS011;4665;51.368;6.782;2023-05-10T15:21:36;11.40;;;10.20;;
9256;SDS011;4665;51.368;6.782;2023-05-10T15:24:07;10.57;;;9.47;;
9256;SDS011;4665;51.368;6.782;2023-05-10T15:26:33;9.87;;;8.87;;
9256;SDS011;4665;51.368;6.782;2023-05-10T15:28:58;10.13;;;9.10;;
9256;SDS011;4665;51.368;6.782;2023-05-10T15:31:24;11.93;;;10.70;;
9256;SDS011;4665;51.368;6.782;2023-05-10T15:33:49;11.77;;;10.57;;
9256;SDS011;4665;51.368;6.782;2023-05-10T15:36:15;10.53;;;9.43;;
9256;SDS011;4665;51.368;6.782;2023-05-10T15:38:42;6.87;;;6.23;;